METAR Data
IDs: Format: Raw Decoded Include TAF

Data at: 0119 UTC 06 Dec 2019

KCSV 060053Z AUTO 18004KT 10SM CLR 08/M02 A3013 RMK AO2 SLP212 T00781022
KCSV 052353Z AUTO 17003KT 10SM CLR 09/M02 A3012 RMK AO2 SLP207 T00891022 10144 20078 53005
KCSV 052253Z AUTO 20003KT 9SM CLR 10/M03 A3012 RMK AO2 SLP203 T01001028
KCSV 052153Z AUTO VRB03KT 10SM CLR 13/M06 A3011 RMK AO2 SLP199 T01281061
KCSV 052053Z AUTO VRB03KT 10SM CLR 13/M04 A3011 RMK AO2 SLP196 T01331044 56007
KCSV 051953Z AUTO 26005KT 10SM CLR 14/M05 A3011 RMK AO2 SLP196 T01391050
KCSV 051853Z AUTO VRB03KT 10SM CLR 13/M03 A3011 RMK AO2 SLP197 T01331033
KCSV 051753Z AUTO VRB03KT 10SM CLR 13/M04 A3013 RMK AO2 SLP203 T01281039 10128 21017 58001
KCSV 051653Z AUTO 30006KT 10SM CLR 11/M04 A3014 RMK AO2 SLP207 T01111044
KCSV 051553Z AUTO 00000KT 10SM CLR 09/M02 A3015 RMK AO2 SLP212 T00941017
KCSV 051453Z AUTO 00000KT 10SM CLR 07/M01 A3014 RMK AO2 SLP208 T00671006 53021
KCSV 051353Z AUTO 00000KT 10SM CLR 01/M02 A3010 RMK AO2 SLP201 T00111017
KCSV 051253Z AUTO 00000KT 10SM CLR M01/M03 A3008 RMK AO2 SLP196 T10111028
KCSV 051153Z AUTO 00000KT 10SM CLR M02/M03 A3007 RMK AO2 SLP191 T10171033 10039 21017 53010
KCSV 051053Z AUTO 00000KT 10SM CLR M01/M03 A3005 RMK AO2 SLP182 T10061033
KCSV 050953Z AUTO 00000KT 10SM CLR 00/M03 A3004 RMK AO2 SLP179 T00001033
KCSV 050853Z AUTO 29006KT 10SM CLR 03/M03 A3004 RMK AO2 SLP174 T00331028 51012
KCSV 050753Z AUTO 27007KT 10SM CLR 03/M03 A3003 RMK AO2 SLP173 T00281028
KCSV 050653Z AUTO 27007KT 10SM CLR 03/M03 A3002 RMK AO2 SLP166 T00281033
KCSV 050553Z AUTO 28005KT 10SM CLR 04/M03 A3000 RMK AO2 SLP161 T00391033 10061 20033 401060000 53013
KCSV 050453Z AUTO 27008KT 10SM CLR 04/M04 A2998 RMK AO2 SLP154 T00441039
KCSV 050353Z AUTO 28005KT 10SM CLR 04/M04 A2997 RMK AO2 SLP153 T00441044
KCSV 050253Z AUTO 28005KT 10SM CLR 04/M04 A2996 RMK AO2 SLP149 T00441039 53012
KCSV 050153Z AUTO 27008KT 10SM CLR 06/M04 A2994 RMK AO2 SLP144 T00561039
KCSV 050053Z AUTO 27009KT 10SM CLR 06/M04 A2994 RMK AO2 SLP144 T00561039
KCSV 042353Z AUTO 27008KT 10SM CLR 06/M04 A2992 RMK AO2 SLP140 T00561039 10106 20056 51018
KCSV 042253Z AUTO 27009KT 10SM CLR 07/M04 A2991 RMK AO2 SLP132 T00721039
KCSV 042153Z AUTO 27009KT 10SM CLR 09/M03 A2989 RMK AO2 SLP125 T00891028
KCSV 042053Z AUTO 28014KT 10SM CLR 10/M03 A2987 RMK AO2 SLP116 T01001033 53002
KCSV 041953Z AUTO 28009KT 10SM CLR 10/M02 A2985 RMK AO2 PK WND 26027/1909 SLP111 T01001022
KCSV 041853Z AUTO 28014G23KT 10SM CLR 10/M03 A2985 RMK AO2 SLP111 T01001028
KCSV 041753Z AUTO 26014G20KT 10SM CLR 09/M03 A2986 RMK AO2 SLP115 T00891028 10089 20000 58001
KCSV 041653Z AUTO 28009G19KT 10SM CLR 07/M01 A2988 RMK AO2 SLP123 T00721011
KCSV 041553Z AUTO 29010KT 10SM CLR 06/M01 A2987 RMK AO2 SLP123 T00611006
KCSV 041453Z AUTO 26009KT 10SM CLR 04/M01 A2987 RMK AO2 SLP121 T00391006 53007
KCSV 041353Z AUTO 23003KT 10SM CLR 02/M02 A2986 RMK AO2 SLP120 T00171017